createdAt,value
2019-04-03T00:12:48.316Z,11.23
2019-04-03T00:19:15.856Z,11.60
2019-04-03T00:21:46.063Z,10.27
2019-04-03T00:24:14.787Z,17.47
2019-04-03T00:26:43.382Z,10.00
2019-04-03T00:29:13.483Z,10.17
2019-04-03T00:31:49.877Z,7.47
2019-04-03T01:20:15.349Z,12.17
2019-04-03T01:22:43.918Z,10.93
2019-04-03T01:25:12.719Z,9.50
2019-04-03T01:27:42.130Z,10.20
2019-04-03T01:30:12.136Z,11.47
2019-04-03T01:32:51.591Z,12.20
2019-04-03T01:35:17.959Z,9.27
2019-04-03T01:37:47.868Z,13.13
2019-04-03T01:40:22.348Z,9.80
2019-04-03T01:42:52.754Z,11.20
2019-04-03T01:45:21.345Z,10.80
2019-04-03T01:47:50.053Z,15.47
2019-04-03T01:50:18.711Z,11.03
2019-04-03T01:52:47.404Z,11.97
2019-04-03T01:55:29.179Z,11.63
2019-04-03T01:58:20.691Z,14.23
2019-04-03T02:00:53.569Z,11.40
2019-04-03T02:03:22.117Z,12.63
2019-04-03T02:05:50.877Z,12.93
2019-04-03T02:08:19.551Z,11.90
2019-04-03T02:10:49.262Z,12.33
2019-04-03T02:13:18.290Z,11.30
2019-04-03T02:15:47.195Z,14.10
2019-04-03T02:18:15.773Z,13.17
2019-04-03T02:20:44.503Z,13.33
2019-04-03T02:23:13.309Z,15.33
2019-04-03T02:25:41.997Z,11.10
2019-04-03T02:28:10.743Z,13.37
2019-04-03T02:30:39.559Z,11.97
2019-04-03T02:33:08.206Z,14.77
2019-04-03T02:35:39.214Z,13.50
2019-04-03T02:38:11.474Z,11.77
2019-04-03T02:40:40.352Z,14.97
2019-04-03T02:43:09.327Z,12.67
2019-04-03T02:45:38.429Z,13.57
2019-04-03T02:48:09.155Z,12.03
2019-04-03T02:50:39.175Z,10.60
2019-04-03T02:53:10.007Z,12.50
2019-04-03T02:55:39.794Z,11.80
2019-04-03T03:02:03.178Z,11.00
2019-04-03T03:04:31.990Z,15.73
2019-04-03T03:13:13.400Z,19.33
2019-04-03T03:15:43.846Z,13.50
2019-04-03T03:21:05.229Z,13.17
2019-04-03T03:23:34.026Z,15.53
2019-04-03T03:26:04.976Z,15.17
2019-04-03T03:28:34.518Z,16.40
2019-04-03T03:31:06.042Z,12.60
2019-04-03T03:33:37.369Z,15.37
2019-04-03T03:36:05.819Z,15.73
2019-04-03T03:38:38.191Z,13.37
2019-04-03T03:53:18.527Z,14.87
2019-04-03T03:55:59.817Z,13.83
2019-04-03T03:58:44.486Z,13.23
2019-04-03T04:01:10.954Z,16.10
2019-04-03T05:07:36.340Z,28.53
2019-04-03T05:10:05.888Z,23.63
2019-04-03T05:12:35.464Z,25.90
2019-04-03T05:15:07.181Z,24.67
2019-04-03T05:17:35.976Z,21.57
2019-04-03T05:20:06.375Z,26.27
2019-04-03T05:22:35.067Z,31.00
2019-04-03T05:25:04.223Z,19.00
2019-04-03T05:27:34.378Z,20.70
2019-04-03T05:30:05.265Z,34.13
2019-04-03T05:32:33.611Z,24.70
2019-04-03T05:35:02.282Z,36.83
2019-04-03T05:37:34.614Z,37.07
2019-04-03T05:40:02.949Z,31.47
2019-04-03T05:42:31.559Z,45.63
2019-04-03T05:45:00.111Z,33.47
2019-04-03T05:47:28.866Z,35.03
2019-04-03T05:49:57.591Z,38.03
2019-04-03T05:52:26.367Z,26.47
2019-04-03T05:54:55.280Z,27.33
2019-04-03T05:57:24.251Z,29.00
2019-04-03T06:00:00.075Z,25.20
2019-04-03T06:02:23.052Z,24.70
2019-04-03T06:04:51.791Z,29.30
2019-04-03T06:07:20.387Z,26.77
2019-04-03T06:09:48.934Z,26.43
2019-04-03T06:12:19.085Z,35.23
2019-04-03T06:14:50.061Z,28.27
2019-04-03T06:17:18.313Z,40.33
2019-04-03T06:19:46.992Z,36.53
2019-04-03T06:22:17.029Z,19.60
2019-04-03T06:24:46.027Z,20.10
2019-04-03T06:27:14.757Z,24.03
2019-04-03T06:29:43.507Z,19.30
2019-04-03T06:32:12.142Z,21.13
2019-04-03T06:34:43.228Z,15.95
2019-04-03T06:37:11.216Z,17.17
2019-04-03T06:39:39.989Z,16.33
2019-04-03T06:42:08.675Z,17.27
2019-04-03T06:44:37.348Z,14.43
2019-04-03T06:47:06.101Z,10.83
2019-04-03T06:49:34.687Z,14.63
2019-04-03T06:52:03.571Z,13.33
2019-04-03T06:54:32.402Z,14.23
2019-04-03T06:57:01.133Z,17.80
2019-04-03T06:59:29.891Z,13.73
2019-04-03T07:01:58.436Z,15.13
2019-04-03T07:04:27.143Z,17.97
2019-04-03T07:06:56.596Z,17.57
2019-04-03T07:09:34.162Z,20.17
2019-04-03T07:11:57.362Z,13.57
2019-04-03T07:14:27.174Z,13.53
2019-04-03T07:16:56.119Z,18.30
2019-04-03T07:19:24.885Z,10.67
2019-04-03T07:21:55.427Z,11.03
2019-04-03T07:24:24.258Z,15.13
2019-04-03T07:26:53.100Z,12.00
2019-04-03T07:29:24.920Z,12.17
2019-04-03T07:31:54.228Z,10.03
2019-04-03T07:34:22.524Z,11.97
2019-04-03T07:36:51.007Z,8.33
2019-04-03T07:39:19.937Z,10.67
2019-04-03T07:41:48.619Z,8.77
2019-04-03T07:44:17.563Z,9.03
2019-04-03T07:46:46.192Z,7.10
2019-04-03T07:49:16.619Z,9.43
2019-04-03T07:51:45.307Z,23.27
2019-04-03T07:54:13.852Z,16.70
2019-04-03T07:56:42.580Z,15.33
2019-04-03T07:59:11.113Z,19.60
2019-04-03T08:01:41.289Z,18.70
2019-04-03T08:04:10.242Z,18.50
2019-04-03T08:06:38.906Z,13.00
2019-04-03T08:09:10.259Z,13.13
2019-04-03T08:11:39.179Z,16.53
2019-04-03T08:14:09.130Z,15.70
2019-04-03T08:16:38.275Z,13.40
2019-04-03T08:19:08.604Z,14.33
2019-04-03T08:21:37.127Z,15.57
2019-04-03T08:24:08.017Z,14.83
2019-04-03T08:26:36.101Z,13.60
2019-04-03T08:29:04.891Z,10.80
2019-04-03T08:31:33.405Z,15.57
2019-04-03T08:34:13.961Z,10.10
2019-04-03T08:36:32.912Z,8.57
2019-04-03T08:39:01.522Z,5.20
2019-04-03T08:41:30.245Z,3.30
2019-04-03T08:43:58.905Z,5.27
2019-04-03T08:46:27.545Z,5.17
2019-04-03T08:48:56.229Z,5.40
2019-04-03T08:51:24.775Z,5.93
2019-04-03T08:53:54.470Z,5.77
2019-04-03T08:56:23.957Z,4.90
2019-04-03T08:58:52.597Z,7.60
2019-04-03T09:01:21.359Z,8.20
2019-04-03T09:03:50.006Z,5.30
2019-04-03T09:06:18.720Z,7.57
2019-04-03T09:08:47.759Z,6.10
2019-04-03T09:11:18.542Z,5.37
2019-04-03T09:13:47.210Z,9.03
2019-04-03T09:16:16.003Z,4.63
2019-04-03T09:18:44.717Z,4.83
2019-04-03T09:21:15.152Z,4.20
2019-04-03T09:23:43.793Z,4.57
2019-04-03T09:26:12.719Z,7.37
2019-04-03T09:28:46.004Z,6.00
2019-04-03T09:31:14.679Z,6.33
2019-04-03T09:33:43.252Z,5.17
2019-04-03T09:36:11.925Z,4.10
2019-04-03T09:38:41.474Z,5.77
2019-04-03T09:41:11.016Z,8.33
2019-04-03T09:43:40.131Z,3.23
2019-04-03T09:46:08.944Z,4.90
2019-04-03T09:48:38.016Z,4.27
2019-04-03T09:51:09.935Z,5.10
2019-04-03T09:53:38.809Z,6.00
2019-04-03T09:56:08.571Z,2.70
2019-04-03T09:58:37.663Z,4.60
2019-04-03T10:01:07.212Z,3.33
2019-04-03T10:03:36.664Z,4.87
2019-04-03T10:06:06.010Z,7.53
2019-04-03T10:08:34.634Z,5.17
2019-04-03T10:11:03.524Z,3.97
2019-04-03T10:13:33.296Z,7.43
2019-04-03T10:16:03.889Z,4.70
2019-04-03T10:18:32.537Z,5.43
2019-04-03T10:21:01.449Z,9.25
2019-04-03T10:23:30.020Z,5.47
2019-04-03T10:26:01.385Z,3.70
2019-04-03T10:28:31.997Z,3.97
2019-04-03T10:31:04.225Z,7.63
2019-04-03T10:33:40.760Z,4.67
2019-04-03T10:36:11.428Z,5.57
2019-04-03T10:38:42.774Z,7.53
2019-04-03T10:41:28.261Z,3.10
2019-04-03T10:43:54.945Z,2.57
2019-04-03T10:46:23.659Z,4.83
2019-04-03T10:48:55.164Z,3.57
2019-04-03T10:51:24.043Z,4.73
2019-04-03T10:54:00.303Z,4.80
2019-04-03T10:56:31.196Z,3.87
2019-04-03T10:59:09.635Z,2.40
2019-04-03T11:01:29.507Z,4.47
2019-04-03T11:03:58.179Z,4.53
2019-04-03T11:10:26.603Z,2.00
2019-04-03T11:18:41.805Z,5.63
2019-04-03T13:11:41.105Z,3.77
2019-04-03T13:15:02.085Z,4.47
2019-04-03T13:17:02.157Z,4.53
2019-04-03T14:49:31.265Z,5.20
2019-04-03T15:17:15.346Z,6.67
2019-04-03T15:22:56.547Z,9.23
2019-04-03T15:25:35.414Z,9.40
2019-04-03T15:28:08.268Z,10.60
2019-04-03T15:30:52.780Z,5.97
2019-04-03T15:33:35.230Z,4.27
2019-04-03T15:36:07.937Z,3.03
2019-04-03T15:38:40.584Z,2.77
2019-04-03T15:45:22.431Z,4.33
2019-04-03T15:51:01.270Z,2.87
2019-04-03T15:57:39.657Z,4.23
2019-04-03T16:00:25.275Z,4.30
2019-04-03T16:05:53.666Z,4.67
2019-04-03T16:11:51.971Z,5.40
2019-04-03T16:32:10.872Z,5.17
2019-04-03T16:34:59.446Z,5.37
2019-04-03T16:37:55.888Z,6.40
2019-04-03T16:41:14.448Z,7.53
2019-04-03T16:47:03.242Z,5.13
2019-04-03T16:50:13.118Z,6.00
2019-04-03T16:53:09.650Z,3.07
2019-04-03T16:59:03.888Z,6.57
2019-04-03T17:01:52.654Z,6.63
2019-04-03T17:04:28.783Z,4.03
2019-04-03T17:07:11.239Z,6.20
2019-04-03T17:09:55.279Z,4.83
2019-04-03T17:12:26.463Z,13.33
2019-04-03T17:15:23.591Z,7.70
2019-04-03T17:18:56.875Z,8.33
2019-04-03T17:21:05.085Z,6.30
2019-04-03T17:27:17.811Z,4.93
2019-04-03T17:29:28.452Z,10.07
2019-04-03T17:34:56.159Z,6.90
2019-04-03T17:37:26.353Z,7.80
2019-04-03T17:42:37.125Z,7.23
2019-04-03T17:45:10.187Z,8.73
2019-04-03T17:47:45.008Z,8.60
2019-04-03T17:50:21.378Z,7.27
2019-04-03T17:53:06.328Z,6.93
2019-04-03T17:55:37.577Z,8.70
2019-04-03T17:58:16.529Z,8.87
2019-04-03T18:00:52.063Z,5.50
2019-04-03T18:03:21.831Z,7.20
2019-04-03T18:05:52.530Z,15.47
2019-04-03T18:08:25.995Z,6.13
2019-04-03T18:10:56.481Z,5.13
2019-04-03T18:13:25.369Z,5.80
2019-04-03T18:16:07.717Z,6.53
2019-04-03T18:24:53.754Z,9.73
2019-04-03T18:50:51.476Z,4.73
2019-04-03T18:53:23.253Z,4.97
2019-04-03T18:55:54.070Z,4.60
2019-04-03T18:58:37.529Z,5.10
2019-04-03T19:01:11.879Z,9.43
2019-04-03T19:03:44.872Z,4.40
2019-04-03T19:12:37.924Z,11.90
2019-04-03T19:33:14.578Z,5.60
2019-04-03T19:36:11.549Z,6.27
2019-04-03T19:38:53.505Z,6.30
2019-04-03T19:41:57.651Z,5.23
2019-04-03T19:44:22.687Z,7.40
2019-04-03T19:46:52.006Z,10.53
2019-04-03T19:49:22.450Z,9.90
2019-04-03T19:51:51.281Z,6.77
2019-04-03T20:01:08.847Z,8.83
2019-04-03T20:07:17.103Z,6.77
2019-04-03T20:34:18.962Z,8.47
2019-04-03T20:58:55.761Z,7.90
2019-04-03T21:01:12.381Z,7.17
2019-04-03T21:03:46.883Z,7.00
2019-04-03T21:06:27.659Z,9.43
2019-04-03T21:09:15.645Z,8.57
2019-04-03T21:40:41.451Z,9.97
2019-04-03T21:49:39.013Z,11.53
2019-04-03T21:52:07.777Z,9.03
2019-04-03T21:54:36.539Z,9.47
2019-04-03T21:57:06.761Z,11.60
2019-04-03T21:59:35.653Z,10.43
2019-04-03T22:05:20.291Z,6.83
2019-04-03T22:08:08.917Z,11.40
2019-04-03T22:52:49.100Z,10.17
2019-04-03T22:55:23.471Z,9.57
2019-04-03T22:58:27.852Z,10.10
2019-04-03T23:04:19.328Z,11.00
2019-04-03T23:07:16.619Z,9.23
2019-04-03T23:09:52.986Z,8.07
2019-04-03T23:12:21.310Z,10.60
2019-04-03T23:15:00.736Z,8.20
2019-04-03T23:17:38.585Z,10.43
2019-04-03T23:20:10.224Z,8.47
2019-04-03T23:22:46.425Z,8.57
2019-04-03T23:25:15.067Z,9.97
2019-04-03T23:28:17.191Z,8.67
2019-04-03T23:34:13.036Z,7.27
2019-04-03T23:36:48.649Z,10.60
2019-04-03T23:42:37.814Z,10.77
